sensor_id;sensor_type;location;lat;lon;timestamp;P1;durP1;ratioP1;P2;durP2;ratioP2
61642;SDS011;47551;52.506;4.678;2022-07-29T00:00:15;3.20;;;1.50;;
61642;SDS011;47551;52.506;4.678;2022-07-29T00:00:38;3.25;;;1.50;;
61642;SDS011;47551;52.506;4.678;2022-07-29T00:00:58;3.73;;;1.70;;
61642;SDS011;47551;52.506;4.678;2022-07-29T00:01:19;3.33;;;1.57;;
61642;SDS011;47551;52.506;4.678;2022-07-29T00:01:39;3.90;;;1.58;;
61642;SDS011;47551;52.506;4.678;2022-07-29T00:02:00;3.20;;;1.47;;
61642;SDS011;47551;52.506;4.678;2022-07-29T00:02:20;3.03;;;1.50;;
61642;SDS011;47551;52.506;4.678;2022-07-29T00:02:40;3.37;;;1.57;;
61642;SDS011;47551;52.506;4.678;2022-07-29T00:03:01;3.47;;;1.70;;
61642;SDS011;47551;52.506;4.678;2022-07-29T00:03:22;3.58;;;1.50;;
61642;SDS011;47551;52.506;4.678;2022-07-29T00:03:42;4.10;;;1.43;;
61642;SDS011;47551;52.506;4.678;2022-07-29T00:04:03;4.83;;;1.60;;
61642;SDS011;47551;52.506;4.678;2022-07-29T00:04:23;4.43;;;1.60;;
61642;SDS011;47551;52.506;4.678;2022-07-29T00:04:43;4.53;;;1.60;;
61642;SDS011;47551;52.506;4.678;2022-07-29T00:05:04;4.50;;;1.60;;
61642;SDS011;47551;52.506;4.678;2022-07-29T00:05:24;3.80;;;1.60;;
61642;SDS011;47551;52.506;4.678;2022-07-29T00:05:45;3.50;;;1.50;;
61642;SDS011;47551;52.506;4.678;2022-07-29T00:06:05;4.37;;;1.60;;
61642;SDS011;47551;52.506;4.678;2022-07-29T00:06:25;3.70;;;1.60;;
61642;SDS011;47551;52.506;4.678;2022-07-29T00:06:49;3.63;;;1.60;;
61642;SDS011;47551;52.506;4.678;2022-07-29T00:07:12;3.33;;;1.40;;
61642;SDS011;47551;52.506;4.678;2022-07-29T00:07:32;3.70;;;1.53;;
61642;SDS011;47551;52.506;4.678;2022-07-29T00:07:55;3.08;;;1.50;;
61642;SDS011;47551;52.506;4.678;2022-07-29T00:08:15;3.33;;;1.50;;
61642;SDS011;47551;52.506;4.678;2022-07-29T00:08:36;3.70;;;1.60;;
61642;SDS011;47551;52.506;4.678;2022-07-29T00:08:56;4.40;;;1.70;;
61642;SDS011;47551;52.506;4.678;2022-07-29T00:09:16;4.83;;;1.60;;
61642;SDS011;47551;52.506;4.678;2022-07-29T00:09:37;3.43;;;1.43;;
61642;SDS011;47551;52.506;4.678;2022-07-29T00:09:57;3.70;;;1.70;;
61642;SDS011;47551;52.506;4.678;2022-07-29T00:10:17;3.42;;;1.48;;
61642;SDS011;47551;52.506;4.678;2022-07-29T00:10:38;3.53;;;1.40;;
61642;SDS011;47551;52.506;4.678;2022-07-29T00:10:58;3.20;;;1.40;;
61642;SDS011;47551;52.506;4.678;2022-07-29T00:11:18;3.95;;;1.50;;
61642;SDS011;47551;52.506;4.678;2022-07-29T00:11:39;5.40;;;1.47;;
61642;SDS011;47551;52.506;4.678;2022-07-29T00:12:00;4.47;;;1.53;;
61642;SDS011;47551;52.506;4.678;2022-07-29T00:12:22;4.45;;;1.50;;
61642;SDS011;47551;52.506;4.678;2022-07-29T00:12:43;4.97;;;1.63;;
61642;SDS011;47551;52.506;4.678;2022-07-29T00:13:04;4.63;;;1.63;;
61642;SDS011;47551;52.506;4.678;2022-07-29T00:13:24;4.63;;;1.65;;
61642;SDS011;47551;52.506;4.678;2022-07-29T00:13:44;3.57;;;1.57;;
61642;SDS011;47551;52.506;4.678;2022-07-29T00:14:07;3.15;;;1.65;;
61642;SDS011;47551;52.506;4.678;2022-07-29T00:14:28;3.73;;;1.60;;
61642;SDS011;47551;52.506;4.678;2022-07-29T00:14:48;4.07;;;1.80;;
61642;SDS011;47551;52.506;4.678;2022-07-29T00:15:11;3.85;;;1.63;;
61642;SDS011;47551;52.506;4.678;2022-07-29T00:15:32;3.50;;;1.53;;
61642;SDS011;47551;52.506;4.678;2022-07-29T00:15:58;2.83;;;1.50;;
61642;SDS011;47551;52.506;4.678;2022-07-29T00:16:19;2.73;;;1.40;;
61642;SDS011;47551;52.506;4.678;2022-07-29T00:16:39;4.00;;;1.58;;
61642;SDS011;47551;52.506;4.678;2022-07-29T00:17:02;3.22;;;1.65;;
61642;SDS011;47551;52.506;4.678;2022-07-29T00:17:23;3.43;;;1.60;;
61642;SDS011;47551;52.506;4.678;2022-07-29T00:17:44;4.35;;;1.90;;
61642;SDS011;47551;52.506;4.678;2022-07-29T00:18:04;2.87;;;1.70;;
61642;SDS011;47551;52.506;4.678;2022-07-29T00:18:24;3.20;;;1.60;;
61642;SDS011;47551;52.506;4.678;2022-07-29T00:18:47;3.95;;;1.70;;
61642;SDS011;47551;52.506;4.678;2022-07-29T00:19:10;3.63;;;1.60;;
61642;SDS011;47551;52.506;4.678;2022-07-29T00:19:31;3.15;;;1.60;;
61642;SDS011;47551;52.506;4.678;2022-07-29T00:19:51;4.43;;;1.63;;
61642;SDS011;47551;52.506;4.678;2022-07-29T00:20:15;4.30;;;1.60;;
61642;SDS011;47551;52.506;4.678;2022-07-29T00:20:35;4.03;;;1.70;;
61642;SDS011;47551;52.506;4.678;2022-07-29T00:20:56;4.50;;;1.70;;
61642;SDS011;47551;52.506;4.678;2022-07-29T00:21:16;4.03;;;1.60;;
61642;SDS011;47551;52.506;4.678;2022-07-29T00:21:39;2.90;;;1.48;;
61642;SDS011;47551;52.506;4.678;2022-07-29T00:22:00;3.22;;;1.65;;
61642;SDS011;47551;52.506;4.678;2022-07-29T00:22:23;4.32;;;1.50;;
61642;SDS011;47551;52.506;4.678;2022-07-29T00:22:46;3.92;;;1.50;;
61642;SDS011;47551;52.506;4.678;2022-07-29T00:23:06;4.57;;;1.63;;
61642;SDS011;47551;52.506;4.678;2022-07-29T00:23:26;5.38;;;1.80;;
61642;SDS011;47551;52.506;4.678;2022-07-29T00:23:47;4.03;;;1.67;;
61642;SDS011;47551;52.506;4.678;2022-07-29T00:24:11;3.63;;;1.50;;
61642;SDS011;47551;52.506;4.678;2022-07-29T00:24:31;4.13;;;1.50;;
61642;SDS011;47551;52.506;4.678;2022-07-29T00:25:00;3.10;;;1.60;;
61642;SDS011;47551;52.506;4.678;2022-07-29T00:25:20;3.57;;;1.70;;
61642;SDS011;47551;52.506;4.678;2022-07-29T00:25:41;3.80;;;1.70;;
61642;SDS011;47551;52.506;4.678;2022-07-29T00:26:01;5.03;;;1.77;;
61642;SDS011;47551;52.506;4.678;2022-07-29T00:26:22;4.97;;;1.80;;
61642;SDS011;47551;52.506;4.678;2022-07-29T00:26:43;4.28;;;1.90;;
61642;SDS011;47551;52.506;4.678;2022-07-29T00:27:03;4.53;;;1.60;;
61642;SDS011;47551;52.506;4.678;2022-07-29T00:27:23;3.90;;;1.53;;
61642;SDS011;47551;52.506;4.678;2022-07-29T00:27:44;4.33;;;1.60;;
61642;SDS011;47551;52.506;4.678;2022-07-29T00:28:05;5.20;;;1.83;;
61642;SDS011;47551;52.506;4.678;2022-07-29T00:28:26;4.37;;;1.73;;
61642;SDS011;47551;52.506;4.678;2022-07-29T00:28:52;3.55;;;1.60;;
61642;SDS011;47551;52.506;4.678;2022-07-29T00:29:13;2.70;;;1.60;;
61642;SDS011;47551;52.506;4.678;2022-07-29T00:29:33;3.25;;;1.60;;
61642;SDS011;47551;52.506;4.678;2022-07-29T00:29:54;4.18;;;1.60;;
61642;SDS011;47551;52.506;4.678;2022-07-29T00:30:14;3.93;;;1.70;;
61642;SDS011;47551;52.506;4.678;2022-07-29T00:30:35;4.20;;;1.90;;
61642;SDS011;47551;52.506;4.678;2022-07-29T00:30:55;4.43;;;1.97;;
61642;SDS011;47551;52.506;4.678;2022-07-29T00:31:15;3.70;;;1.90;;
61642;SDS011;47551;52.506;4.678;2022-07-29T00:31:35;3.63;;;1.73;;
61642;SDS011;47551;52.506;4.678;2022-07-29T00:31:56;5.00;;;1.70;;
61642;SDS011;47551;52.506;4.678;2022-07-29T00:32:19;4.22;;;1.60;;
61642;SDS011;47551;52.506;4.678;2022-07-29T00:32:42;3.60;;;1.70;;
61642;SDS011;47551;52.506;4.678;2022-07-29T00:33:02;3.70;;;1.70;;
61642;SDS011;47551;52.506;4.678;2022-07-29T00:33:22;3.95;;;1.70;;
61642;SDS011;47551;52.506;4.678;2022-07-29T00:33:43;4.57;;;1.80;;
61642;SDS011;47551;52.506;4.678;2022-07-29T00:34:03;4.90;;;1.80;;
61642;SDS011;47551;52.506;4.678;2022-07-29T00:34:46;3.80;;;1.70;;
61642;SDS011;47551;52.506;4.678;2022-07-29T00:35:25;4.90;;;1.85;;
61642;SDS011;47551;52.506;4.678;2022-07-29T00:36:04;5.00;;;1.80;;
61642;SDS011;47551;52.506;4.678;2022-07-29T00:36:24;4.10;;;1.90;;
61642;SDS011;47551;52.506;4.678;2022-07-29T00:36:44;3.88;;;1.55;;
61642;SDS011;47551;52.506;4.678;2022-07-29T00:37:05;4.03;;;1.60;;
61642;SDS011;47551;52.506;4.678;2022-07-29T00:37:25;4.50;;;1.67;;
61642;SDS011;47551;52.506;4.678;2022-07-29T00:37:48;4.15;;;1.80;;
61642;SDS011;47551;52.506;4.678;2022-07-29T00:38:21;3.88;;;1.60;;
61642;SDS011;47551;52.506;4.678;2022-07-29T00:38:41;3.97;;;1.65;;
61642;SDS011;47551;52.506;4.678;2022-07-29T00:39:04;4.15;;;1.70;;
61642;SDS011;47551;52.506;4.678;2022-07-29T00:39:25;3.97;;;1.60;;
61642;SDS011;47551;52.506;4.678;2022-07-29T00:39:45;4.37;;;1.80;;
61642;SDS011;47551;52.506;4.678;2022-07-29T00:40:06;5.30;;;1.93;;
61642;SDS011;47551;52.506;4.678;2022-07-29T00:40:27;3.55;;;2.00;;
61642;SDS011;47551;52.506;4.678;2022-07-29T00:40:47;3.35;;;1.88;;
61642;SDS011;47551;52.506;4.678;2022-07-29T00:41:07;3.50;;;1.70;;
61642;SDS011;47551;52.506;4.678;2022-07-29T00:41:28;3.88;;;1.67;;
61642;SDS011;47551;52.506;4.678;2022-07-29T00:41:48;3.03;;;1.60;;
61642;SDS011;47551;52.506;4.678;2022-07-29T00:42:09;4.25;;;1.90;;
61642;SDS011;47551;52.506;4.678;2022-07-29T00:42:30;4.20;;;1.70;;
61642;SDS011;47551;52.506;4.678;2022-07-29T00:42:51;3.93;;;1.70;;
61642;SDS011;47551;52.506;4.678;2022-07-29T00:43:14;3.58;;;1.70;;
61642;SDS011;47551;52.506;4.678;2022-07-29T00:43:35;4.30;;;1.90;;
61642;SDS011;47551;52.506;4.678;2022-07-29T00:43:55;4.37;;;1.70;;
61642;SDS011;47551;52.506;4.678;2022-07-29T00:44:16;4.03;;;1.60;;
61642;SDS011;47551;52.506;4.678;2022-07-29T00:44:40;3.83;;;1.70;;
61642;SDS011;47551;52.506;4.678;2022-07-29T00:45:07;4.60;;;1.63;;
61642;SDS011;47551;52.506;4.678;2022-07-29T00:45:28;3.38;;;1.63;;
61642;SDS011;47551;52.506;4.678;2022-07-29T00:45:49;4.95;;;1.88;;
61642;SDS011;47551;52.506;4.678;2022-07-29T00:46:10;4.33;;;1.70;;
61642;SDS011;47551;52.506;4.678;2022-07-29T00:46:31;4.07;;;1.80;;
61642;SDS011;47551;52.506;4.678;2022-07-29T00:46:52;4.40;;;1.80;;
61642;SDS011;47551;52.506;4.678;2022-07-29T00:47:12;3.47;;;1.60;;
61642;SDS011;47551;52.506;4.678;2022-07-29T00:47:32;3.42;;;1.67;;
61642;SDS011;47551;52.506;4.678;2022-07-29T00:47:52;3.27;;;1.70;;
61642;SDS011;47551;52.506;4.678;2022-07-29T00:48:16;3.45;;;1.58;;
61642;SDS011;47551;52.506;4.678;2022-07-29T00:48:39;3.53;;;1.67;;
61642;SDS011;47551;52.506;4.678;2022-07-29T00:48:59;4.07;;;1.80;;
61642;SDS011;47551;52.506;4.678;2022-07-29T00:49:19;3.73;;;1.63;;
61642;SDS011;47551;52.506;4.678;2022-07-29T00:49:40;3.73;;;1.63;;
61642;SDS011;47551;52.506;4.678;2022-07-29T00:50:01;3.17;;;1.70;;
61642;SDS011;47551;52.506;4.678;2022-07-29T00:50:27;4.07;;;1.65;;
61642;SDS011;47551;52.506;4.678;2022-07-29T00:50:47;3.90;;;1.70;;
61642;SDS011;47551;52.506;4.678;2022-07-29T00:51:14;4.30;;;1.73;;
61642;SDS011;47551;52.506;4.678;2022-07-29T00:51:38;4.60;;;1.80;;
61642;SDS011;47551;52.506;4.678;2022-07-29T00:52:01;3.97;;;1.80;;
61642;SDS011;47551;52.506;4.678;2022-07-29T00:52:23;4.18;;;1.80;;
61642;SDS011;47551;52.506;4.678;2022-07-29T00:52:43;3.60;;;1.80;;
61642;SDS011;47551;52.506;4.678;2022-07-29T00:53:07;4.68;;;1.83;;
61642;SDS011;47551;52.506;4.678;2022-07-29T00:53:29;4.60;;;2.00;;
61642;SDS011;47551;52.506;4.678;2022-07-29T00:53:50;4.35;;;1.90;;
61642;SDS011;47551;52.506;4.678;2022-07-29T00:54:10;4.03;;;1.73;;
61642;SDS011;47551;52.506;4.678;2022-07-29T00:54:32;4.05;;;1.70;;
61642;SDS011;47551;52.506;4.678;2022-07-29T00:54:53;5.18;;;1.70;;
61642;SDS011;47551;52.506;4.678;2022-07-29T00:55:14;5.05;;;1.70;;
61642;SDS011;47551;52.506;4.678;2022-07-29T00:55:35;3.83;;;1.55;;
61642;SDS011;47551;52.506;4.678;2022-07-29T00:55:58;3.20;;;1.70;;
61642;SDS011;47551;52.506;4.678;2022-07-29T00:56:22;3.55;;;1.70;;
61642;SDS011;47551;52.506;4.678;2022-07-29T00:56:42;3.93;;;1.90;;
61642;SDS011;47551;52.506;4.678;2022-07-29T00:57:03;3.88;;;1.90;;
61642;SDS011;47551;52.506;4.678;2022-07-29T00:57:23;4.63;;;1.83;;
61642;SDS011;47551;52.506;4.678;2022-07-29T00:57:46;4.03;;;1.77;;
61642;SDS011;47551;52.506;4.678;2022-07-29T00:58:07;4.03;;;1.77;;
61642;SDS011;47551;52.506;4.678;2022-07-29T00:58:28;3.97;;;1.90;;
61642;SDS011;47551;52.506;4.678;2022-07-29T00:58:48;4.97;;;1.90;;
61642;SDS011;47551;52.506;4.678;2022-07-29T00:59:10;4.05;;;1.80;;
61642;SDS011;47551;52.506;4.678;2022-07-29T00:59:31;3.57;;;1.70;;
61642;SDS011;47551;52.506;4.678;2022-07-29T00:59:51;3.50;;;1.80;;
61642;SDS011;47551;52.506;4.678;2022-07-29T01:00:12;4.47;;;1.77;;
61642;SDS011;47551;52.506;4.678;2022-07-29T01:00:37;4.80;;;1.67;;
61642;SDS011;47551;52.506;4.678;2022-07-29T01:01:00;4.05;;;1.65;;
61642;SDS011;47551;52.506;4.678;2022-07-29T01:01:20;4.03;;;1.80;;
61642;SDS011;47551;52.506;4.678;2022-07-29T01:01:41;4.00;;;1.80;;
61642;SDS011;47551;52.506;4.678;2022-07-29T01:02:04;4.05;;;1.90;;
61642;SDS011;47551;52.506;4.678;2022-07-29T01:02:27;4.60;;;1.90;;
61642;SDS011;47551;52.506;4.678;2022-07-29T01:02:47;3.47;;;1.70;;
61642;SDS011;47551;52.506;4.678;2022-07-29T01:03:08;3.58;;;1.80;;
61642;SDS011;47551;52.506;4.678;2022-07-29T01:03:34;4.05;;;1.70;;
61642;SDS011;47551;52.506;4.678;2022-07-29T01:03:57;4.05;;;1.77;;
61642;SDS011;47551;52.506;4.678;2022-07-29T01:04:21;3.75;;;1.88;;
61642;SDS011;47551;52.506;4.678;2022-07-29T01:04:41;3.97;;;1.77;;
61642;SDS011;47551;52.506;4.678;2022-07-29T01:05:05;3.90;;;1.70;;
61642;SDS011;47551;52.506;4.678;2022-07-29T01:05:26;3.67;;;1.60;;
61642;SDS011;47551;52.506;4.678;2022-07-29T01:05:48;3.55;;;1.80;;
61642;SDS011;47551;52.506;4.678;2022-07-29T01:06:09;4.53;;;1.90;;
61642;SDS011;47551;52.506;4.678;2022-07-29T01:06:29;4.67;;;1.80;;
61642;SDS011;47551;52.506;4.678;2022-07-29T01:06:50;3.30;;;1.70;;
61642;SDS011;47551;52.506;4.678;2022-07-29T01:07:11;4.57;;;1.83;;
61642;SDS011;47551;52.506;4.678;2022-07-29T01:07:33;4.20;;;1.80;;
61642;SDS011;47551;52.506;4.678;2022-07-29T01:07:54;4.13;;;1.80;;
61642;SDS011;47551;52.506;4.678;2022-07-29T01:08:17;3.78;;;1.80;;
61642;SDS011;47551;52.506;4.678;2022-07-29T01:08:38;4.20;;;1.70;;
61642;SDS011;47551;52.506;4.678;2022-07-29T01:08:59;4.38;;;2.00;;
61642;SDS011;47551;52.506;4.678;2022-07-29T01:09:20;5.00;;;2.07;;
61642;SDS011;47551;52.506;4.678;2022-07-29T01:09:41;4.15;;;1.90;;
61642;SDS011;47551;52.506;4.678;2022-07-29T01:10:03;4.00;;;1.90;;
61642;SDS011;47551;52.506;4.678;2022-07-29T01:10:26;3.47;;;1.67;;
61642;SDS011;47551;52.506;4.678;2022-07-29T01:10:47;4.10;;;1.90;;
61642;SDS011;47551;52.506;4.678;2022-07-29T01:11:09;4.85;;;1.90;;
61642;SDS011;47551;52.506;4.678;2022-07-29T01:11:29;4.82;;;1.83;;
61642;SDS011;47551;52.506;4.678;2022-07-29T01:11:50;3.88;;;1.92;;
61642;SDS011;47551;52.506;4.678;2022-07-29T01:12:12;3.58;;;1.83;;
61642;SDS011;47551;52.506;4.678;2022-07-29T01:12:43;5.13;;;2.00;;
61642;SDS011;47551;52.506;4.678;2022-07-29T01:13:06;4.78;;;2.00;;
61642;SDS011;47551;52.506;4.678;2022-07-29T01:13:27;4.88;;;2.00;;
61642;SDS011;47551;52.506;4.678;2022-07-29T01:13:49;3.50;;;1.77;;
61642;SDS011;47551;52.506;4.678;2022-07-29T01:14:09;4.03;;;1.80;;
61642;SDS011;47551;52.506;4.678;2022-07-29T01:14:31;4.10;;;1.70;;
61642;SDS011;47551;52.506;4.678;2022-07-29T01:14:52;4.13;;;1.80;;
61642;SDS011;47551;52.506;4.678;2022-07-29T01:15:13;3.90;;;1.85;;
61642;SDS011;47551;52.506;4.678;2022-07-29T01:15:34;3.33;;;1.73;;
61642;SDS011;47551;52.506;4.678;2022-07-29T01:16:04;4.22;;;1.90;;
61642;SDS011;47551;52.506;4.678;2022-07-29T01:16:42;4.00;;;1.70;;
61642;SDS011;47551;52.506;4.678;2022-07-29T01:18:47;4.25;;;1.70;;
61642;SDS011;47551;52.506;4.678;2022-07-29T01:20:14;3.75;;;1.80;;
61642;SDS011;47551;52.506;4.678;2022-07-29T01:21:53;4.53;;;1.90;;
61642;SDS011;47551;52.506;4.678;2022-07-29T01:22:53;4.13;;;1.90;;
61642;SDS011;47551;52.506;4.678;2022-07-29T01:23:59;3.63;;;1.73;;
61642;SDS011;47551;52.506;4.678;2022-07-29T01:25:27;4.53;;;1.80;;
61642;SDS011;47551;52.506;4.678;2022-07-29T01:26:59;4.38;;;2.00;;
61642;SDS011;47551;52.506;4.678;2022-07-29T01:28:14;3.97;;;2.03;;
61642;SDS011;47551;52.506;4.678;2022-07-29T01:29:27;4.90;;;1.77;;
61642;SDS011;47551;52.506;4.678;2022-07-29T01:29:53;3.65;;;1.90;;
61642;SDS011;47551;52.506;4.678;2022-07-29T01:30:16;3.65;;;1.90;;
61642;SDS011;47551;52.506;4.678;2022-07-29T01:30:37;4.13;;;1.83;;
61642;SDS011;47551;52.506;4.678;2022-07-29T01:30:58;4.75;;;1.88;;
61642;SDS011;47551;52.506;4.678;2022-07-29T01:31:25;3.97;;;1.85;;
61642;SDS011;47551;52.506;4.678;2022-07-29T01:32:19;5.25;;;2.17;;
61642;SDS011;47551;52.506;4.678;2022-07-29T01:32:41;4.72;;;1.95;;
61642;SDS011;47551;52.506;4.678;2022-07-29T01:33:08;4.55;;;2.08;;
61642;SDS011;47551;52.506;4.678;2022-07-29T01:33:54;3.55;;;2.00;;
61642;SDS011;47551;52.506;4.678;2022-07-29T01:35:17;3.72;;;1.90;;
61642;SDS011;47551;52.506;4.678;2022-07-29T01:35:42;4.25;;;1.90;;
61642;SDS011;47551;52.506;4.678;2022-07-29T01:36:06;3.75;;;1.83;;
61642;SDS011;47551;52.506;4.678;2022-07-29T01:36:43;6.15;;;1.88;;
61642;SDS011;47551;52.506;4.678;2022-07-29T01:37:26;4.07;;;1.80;;
61642;SDS011;47551;52.506;4.678;2022-07-29T01:37:57;3.47;;;1.83;;
61642;SDS011;47551;52.506;4.678;2022-07-29T01:38:27;3.60;;;1.70;;
61642;SDS011;47551;52.506;4.678;2022-07-29T01:38:51;3.90;;;1.90;;
61642;SDS011;47551;52.506;4.678;2022-07-29T01:39:19;4.30;;;1.83;;
61642;SDS011;47551;52.506;4.678;2022-07-29T01:39:47;5.55;;;2.10;;
61642;SDS011;47551;52.506;4.678;2022-07-29T01:40:13;4.65;;;2.00;;
61642;SDS011;47551;52.506;4.678;2022-07-29T01:40:54;4.60;;;1.90;;
61642;SDS011;47551;52.506;4.678;2022-07-29T01:41:25;4.97;;;1.75;;
61642;SDS011;47551;52.506;4.678;2022-07-29T01:41:57;3.60;;;1.70;;
61642;SDS011;47551;52.506;4.678;2022-07-29T01:42:34;4.28;;;1.85;;
61642;SDS011;47551;52.506;4.678;2022-07-29T01:42:59;3.55;;;1.70;;
61642;SDS011;47551;52.506;4.678;2022-07-29T01:43:23;3.97;;;1.90;;
61642;SDS011;47551;52.506;4.678;2022-07-29T01:43:53;4.45;;;1.70;;
61642;SDS011;47551;52.506;4.678;2022-07-29T01:44:30;5.07;;;1.75;;
61642;SDS011;47551;52.506;4.678;2022-07-29T01:45:06;4.90;;;2.00;;
61642;SDS011;47551;52.506;4.678;2022-07-29T01:45:36;4.30;;;1.92;;
61642;SDS011;47551;52.506;4.678;2022-07-29T01:46:45;4.65;;;1.83;;
61642;SDS011;47551;52.506;4.678;2022-07-29T01:47:12;3.65;;;1.77;;
61642;SDS011;47551;52.506;4.678;2022-07-29T01:47:43;4.60;;;1.80;;
61642;SDS011;47551;52.506;4.678;2022-07-29T01:49:10;4.03;;;1.80;;
61642;SDS011;47551;52.506;4.678;2022-07-29T01:49:35;4.25;;;1.88;;
61642;SDS011;47551;52.506;4.678;2022-07-29T01:50:02;4.00;;;1.80;;
61642;SDS011;47551;52.506;4.678;2022-07-29T01:50:33;4.45;;;1.90;;
61642;SDS011;47551;52.506;4.678;2022-07-29T01:51:02;4.75;;;1.80;;
61642;SDS011;47551;52.506;4.678;2022-07-29T01:52:27;3.97;;;1.70;;
61642;SDS011;47551;52.506;4.678;2022-07-29T01:52:52;4.43;;;2.10;;
61642;SDS011;47551;52.506;4.678;2022-07-29T01:53:26;3.58;;;1.90;;
61642;SDS011;47551;52.506;4.678;2022-07-29T01:53:55;4.47;;;1.88;;
61642;SDS011;47551;52.506;4.678;2022-07-29T01:54:26;3.63;;;1.90;;
61642;SDS011;47551;52.506;4.678;2022-07-29T01:54:53;4.45;;;2.00;;
61642;SDS011;47551;52.506;4.678;2022-07-29T01:55:16;4.70;;;1.70;;
61642;SDS011;47551;52.506;4.678;2022-07-29T01:55:45;4.22;;;1.77;;
61642;SDS011;47551;52.506;4.678;2022-07-29T01:56:07;3.88;;;1.80;;
61642;SDS011;47551;52.506;4.678;2022-07-29T01:56:30;4.18;;;1.90;;
61642;SDS011;47551;52.506;4.678;2022-07-29T01:56:53;4.55;;;1.92;;
61642;SDS011;47551;52.506;4.678;2022-07-29T01:57:16;3.03;;;1.85;;
61642;SDS011;47551;52.506;4.678;2022-07-29T01:57:44;4.13;;;1.80;;
61642;SDS011;47551;52.506;4.678;2022-07-29T01:58:06;4.15;;;2.00;;
61642;SDS011;47551;52.506;4.678;2022-07-29T01:58:29;4.63;;;1.80;;
61642;SDS011;47551;52.506;4.678;2022-07-29T01:58:51;3.88;;;1.80;;
61642;SDS011;47551;52.506;4.678;2022-07-29T01:59:13;3.38;;;1.70;;
61642;SDS011;47551;52.506;4.678;2022-07-29T01:59:35;3.38;;;1.83;;
61642;SDS011;47551;52.506;4.678;2022-07-29T02:00:03;4.85;;;2.03;;
61642;SDS011;47551;52.506;4.678;2022-07-29T02:00:26;3.50;;;1.70;;
61642;SDS011;47551;52.506;4.678;2022-07-29T02:00:47;3.20;;;1.70;;
61642;SDS011;47551;52.506;4.678;2022-07-29T02:01:09;6.47;;;1.80;;
61642;SDS011;47551;52.506;4.678;2022-07-29T02:01:32;4.75;;;1.85;;
61642;SDS011;47551;52.506;4.678;2022-07-29T02:01:54;4.00;;;1.88;;
61642;SDS011;47551;52.506;4.678;2022-07-29T02:02:17;3.90;;;1.85;;
61642;SDS011;47551;52.506;4.678;2022-07-29T02:02:40;4.30;;;1.88;;
61642;SDS011;47551;52.506;4.678;2022-07-29T02:03:07;5.05;;;1.80;;
61642;SDS011;47551;52.506;4.678;2022-07-29T02:03:33;4.82;;;1.90;;
61642;SDS011;47551;52.506;4.678;2022-07-29T02:03:55;4.18;;;1.80;;
61642;SDS011;47551;52.506;4.678;2022-07-29T02:04:17;3.80;;;1.95;;
61642;SDS011;47551;52.506;4.678;2022-07-29T02:04:39;4.15;;;2.00;;
61642;SDS011;47551;52.506;4.678;2022-07-29T02:05:01;4.55;;;2.17;;
61642;SDS011;47551;52.506;4.678;2022-07-29T02:05:25;3.85;;;2.08;;
61642;SDS011;47551;52.506;4.678;2022-07-29T02:05:48;3.45;;;1.85;;
61642;SDS011;47551;52.506;4.678;2022-07-29T02:06:11;5.18;;;1.85;;
61642;SDS011;47551;52.506;4.678;2022-07-29T02:06:35;3.53;;;1.80;;
61642;SDS011;47551;52.506;4.678;2022-07-29T02:07:00;3.83;;;1.90;;
61642;SDS011;47551;52.506;4.678;2022-07-29T02:07:23;4.18;;;1.85;;
61642;SDS011;47551;52.506;4.678;2022-07-29T02:07:46;4.18;;;1.92;;
61642;SDS011;47551;52.506;4.678;2022-07-29T02:08:08;4.63;;;1.90;;
61642;SDS011;47551;52.506;4.678;2022-07-29T02:08:29;4.47;;;1.92;;
61642;SDS011;47551;52.506;4.678;2022-07-29T02:08:53;3.95;;;2.05;;
61642;SDS011;47551;52.506;4.678;2022-07-29T02:09:16;5.00;;;1.90;;
61642;SDS011;47551;52.506;4.678;2022-07-29T02:09:39;5.25;;;2.17;;
61642;SDS011;47551;52.506;4.678;2022-07-29T02:10:02;5.30;;;2.10;;
61642;SDS011;47551;52.506;4.678;2022-07-29T02:10:29;4.35;;;2.10;;
61642;SDS011;47551;52.506;4.678;2022-07-29T02:10:52;4.32;;;2.10;;
61642;SDS011;47551;52.506;4.678;2022-07-29T02:11:14;4.78;;;2.00;;
61642;SDS011;47551;52.506;4.678;2022-07-29T02:11:38;5.10;;;2.00;;
61642;SDS011;47551;52.506;4.678;2022-07-29T02:12:00;5.10;;;1.90;;
61642;SDS011;47551;52.506;4.678;2022-07-29T02:12:31;3.95;;;2.00;;
61642;SDS011;47551;52.506;4.678;2022-07-29T02:12:54;3.58;;;1.92;;
61642;SDS011;47551;52.506;4.678;2022-07-29T02:13:18;5.30;;;2.00;;
61642;SDS011;47551;52.506;4.678;2022-07-29T02:13:43;4.55;;;1.80;;
61642;SDS011;47551;52.506;4.678;2022-07-29T02:14:05;3.58;;;1.80;;
61642;SDS011;47551;52.506;4.678;2022-07-29T02:14:28;4.50;;;2.00;;
61642;SDS011;47551;52.506;4.678;2022-07-29T02:14:52;4.05;;;2.17;;
61642;SDS011;47551;52.506;4.678;2022-07-29T02:15:14;3.83;;;2.10;;
61642;SDS011;47551;52.506;4.678;2022-07-29T02:15:36;3.80;;;2.10;;
61642;SDS011;47551;52.506;4.678;2022-07-29T02:15:58;3.22;;;1.83;;
61642;SDS011;47551;52.506;4.678;2022-07-29T02:16:20;3.67;;;1.90;;
61642;SDS011;47551;52.506;4.678;2022-07-29T02:16:42;4.32;;;2.05;;
61642;SDS011;47551;52.506;4.678;2022-07-29T02:17:04;3.97;;;1.90;;
61642;SDS011;47551;52.506;4.678;2022-07-29T02:17:29;4.43;;;2.05;;
61642;SDS011;47551;52.506;4.678;2022-07-29T02:17:55;4.07;;;1.90;;
61642;SDS011;47551;52.506;4.678;2022-07-29T02:18:18;4.55;;;2.08;;
61642;SDS011;47551;52.506;4.678;2022-07-29T02:18:42;4.82;;;2.17;;
61642;SDS011;47551;52.506;4.678;2022-07-29T02:19:05;4.20;;;2.10;;
61642;SDS011;47551;52.506;4.678;2022-07-29T02:19:29;4.00;;;2.00;;
61642;SDS011;47551;52.506;4.678;2022-07-29T02:19:52;4.95;;;2.00;;
61642;SDS011;47551;52.506;4.678;2022-07-29T02:20:17;3.47;;;1.92;;
61642;SDS011;47551;52.506;4.678;2022-07-29T02:20:38;3.78;;;2.00;;
61642;SDS011;47551;52.506;4.678;2022-07-29T02:21:00;3.60;;;1.90;;
61642;SDS011;47551;52.506;4.678;2022-07-29T02:21:22;4.13;;;2.10;;
61642;SDS011;47551;52.506;4.678;2022-07-29T02:22:05;4.78;;;2.00;;
61642;SDS011;47551;52.506;4.678;2022-07-29T02:22:26;4.03;;;1.90;;
61642;SDS011;47551;52.506;4.678;2022-07-29T02:22:50;4.90;;;2.10;;
61642;SDS011;47551;52.506;4.678;2022-07-29T02:23:12;4.50;;;2.20;;
61642;SDS011;47551;52.506;4.678;2022-07-29T02:23:34;3.45;;;2.03;;
61642;SDS011;47551;52.506;4.678;2022-07-29T02:23:57;3.60;;;1.90;;
61642;SDS011;47551;52.506;4.678;2022-07-29T02:24:20;3.95;;;1.90;;
61642;SDS011;47551;52.506;4.678;2022-07-29T02:24:46;5.47;;;2.13;;
61642;SDS011;47551;52.506;4.678;2022-07-29T02:25:09;3.85;;;1.90;;
61642;SDS011;47551;52.506;4.678;2022-07-29T02:25:31;3.70;;;1.85;;
61642;SDS011;47551;52.506;4.678;2022-07-29T02:25:54;3.17;;;1.75;;
61642;SDS011;47551;52.506;4.678;2022-07-29T02:26:17;3.78;;;2.10;;
61642;SDS011;47551;52.506;4.678;2022-07-29T02:26:41;4.88;;;2.10;;
61642;SDS011;47551;52.506;4.678;2022-07-29T02:27:05;4.78;;;2.10;;
61642;SDS011;47551;52.506;4.678;2022-07-29T02:27:28;5.40;;;2.10;;
61642;SDS011;47551;52.506;4.678;2022-07-29T02:27:50;4.22;;;1.90;;
61642;SDS011;47551;52.506;4.678;2022-07-29T02:28:11;4.38;;;1.90;;
61642;SDS011;47551;52.506;4.678;2022-07-29T02:28:33;4.78;;;1.90;;
61642;SDS011;47551;52.506;4.678;2022-07-29T02:28:55;4.22;;;1.88;;
61642;SDS011;47551;52.506;4.678;2022-07-29T02:29:17;5.72;;;2.10;;
61642;SDS011;47551;52.506;4.678;2022-07-29T02:29:41;3.88;;;1.80;;
61642;SDS011;47551;52.506;4.678;2022-07-29T02:30:07;3.42;;;1.85;;
61642;SDS011;47551;52.506;4.678;2022-07-29T02:30:29;3.92;;;2.10;;
61642;SDS011;47551;52.506;4.678;2022-07-29T02:30:52;4.28;;;2.05;;
61642;SDS011;47551;52.506;4.678;2022-07-29T02:31:16;5.72;;;1.92;;
61642;SDS011;47551;52.506;4.678;2022-07-29T02:31:39;5.35;;;2.05;;
61642;SDS011;47551;52.506;4.678;2022-07-29T02:32:03;5.60;;;2.05;;
61642;SDS011;47551;52.506;4.678;2022-07-29T02:32:24;3.72;;;1.85;;
61642;SDS011;47551;52.506;4.678;2022-07-29T02:32:47;4.18;;;2.00;;
61642;SDS011;47551;52.506;4.678;2022-07-29T02:33:09;4.55;;;2.20;;